Providence, Pennsylvania
Current Conditions -  °F | °C
As of 4:53 PM on Monday 20 Oct 2014 (Local Time) from KLNS Reporting Station
Clear Clear  
Wind Chill: 14°   Ceiling: Unl
Heat Index: 14°   Visibility: 10mi
Dew Point:   Wind: 9mph
Humidity: 58%   Direction: 180°S
Pressure: 29.96"   Gusts: NA
Location:  39.9111°N, 76.2285°W
Report Text: KLNS 202053Z 18008KT 10SM CLR 14/06 A2996 RMK AO2 SLP146 T01440061 56014
Loading
Personal Weather Stations






























Interactive Weather Map
Tropical Storm Tracking
New forecast layout! Learn more

10-Day Weather Forecast

Advertisements
Track Severe Weather on mobile